createdAt,value
2022-08-05T00:01:30.143Z,20.35
2022-08-05T00:06:43.814Z,20.34
2022-08-05T00:11:56.129Z,20.31
2022-08-05T00:17:18.772Z,20.32
2022-08-05T00:22:27.201Z,20.25
2022-08-05T00:27:36.442Z,20.16
2022-08-05T00:32:43.727Z,20.09
2022-08-05T00:37:54.526Z,19.99
2022-08-05T00:43:07.644Z,19.93
2022-08-05T00:48:16.774Z,19.94
2022-08-05T00:54:00.359Z,19.90
2022-08-05T00:58:52.596Z,19.84
2022-08-05T01:04:01.377Z,19.78
2022-08-05T01:09:08.396Z,19.68
2022-08-05T01:14:27.800Z,19.58
2022-08-05T01:20:01.440Z,19.47
2022-08-05T01:25:39.797Z,19.37
2022-08-05T01:30:55.289Z,19.28
2022-08-05T01:36:13.086Z,19.17
2022-08-05T01:41:25.959Z,19.06
2022-08-05T01:46:42.332Z,18.93
2022-08-05T01:51:52.390Z,18.88
2022-08-05T01:58:13.193Z,19.09
2022-08-05T02:02:31.466Z,19.18
2022-08-05T02:07:56.283Z,19.19
2022-08-05T02:13:16.555Z,19.12
2022-08-05T02:18:34.213Z,19.26
2022-08-05T02:23:46.008Z,19.46
2022-08-05T02:28:55.430Z,19.55
2022-08-05T02:34:10.194Z,19.92
2022-08-05T02:39:21.553Z,19.92
2022-08-05T02:44:30.058Z,20.25
2022-08-05T02:49:40.647Z,20.10
2022-08-05T02:54:50.736Z,20.26
2022-08-05T02:59:59.686Z,20.06
2022-08-05T03:05:12.386Z,20.09
2022-08-05T03:10:22.127Z,20.15
2022-08-05T03:15:32.195Z,20.31
2022-08-05T03:20:44.627Z,20.21
2022-08-05T03:26:04.695Z,20.13
2022-08-05T03:31:55.456Z,20.09
2022-08-05T03:36:52.349Z,20.57
2022-08-05T03:41:59.655Z,20.75
2022-08-05T03:47:09.487Z,20.76
2022-08-05T03:52:37.528Z,20.64
2022-08-05T03:57:56.624Z,20.53
2022-08-05T04:03:07.992Z,20.85
2022-08-05T04:08:34.905Z,21.01
2022-08-05T04:13:50.085Z,21.14
2022-08-05T04:18:58.480Z,21.22
2022-08-05T04:24:19.161Z,21.01
2022-08-05T04:29:29.810Z,21.23
2022-08-05T04:34:42.907Z,21.23
2022-08-05T04:39:52.812Z,21.28
2022-08-05T04:45:02.565Z,21.22
2022-08-05T04:50:11.758Z,21.19
2022-08-05T04:55:21.139Z,21.31
2022-08-05T05:00:46.734Z,21.28
2022-08-05T05:06:35.886Z,21.17
2022-08-05T05:11:25.451Z,21.32
2022-08-05T05:16:50.527Z,21.39
2022-08-05T05:21:57.650Z,21.41
2022-08-05T05:27:13.348Z,21.27
2022-08-05T05:32:24.456Z,21.13
2022-08-05T05:37:58.814Z,21.12
2022-08-05T05:43:00.198Z,21.16
2022-08-05T05:48:09.549Z,21.29
2022-08-05T05:53:21.959Z,21.42
2022-08-05T05:58:31.630Z,21.56
2022-08-05T06:04:00.936Z,21.70
2022-08-05T06:09:08.237Z,21.86
2022-08-05T06:14:15.219Z,22.04
2022-08-05T06:19:26.162Z,22.22
2022-08-05T06:24:48.322Z,22.45
2022-08-05T06:30:02.772Z,22.69
2022-08-05T06:35:21.612Z,22.96
2022-08-05T06:40:44.292Z,23.24
2022-08-05T06:46:03.796Z,23.47
2022-08-05T06:51:23.939Z,23.64
2022-08-05T06:56:36.658Z,23.78
2022-08-05T07:01:44.148Z,23.94
2022-08-05T07:06:53.168Z,24.13
2022-08-05T07:12:00.351Z,24.34
2022-08-05T07:18:00.457Z,24.53
2022-08-05T07:22:35.617Z,24.77
2022-08-05T07:27:57.251Z,25.02
2022-08-05T07:33:09.947Z,25.23
2022-08-05T07:38:26.411Z,25.41
2022-08-05T07:43:41.904Z,25.57
2022-08-05T07:49:04.183Z,25.71
2022-08-05T07:54:12.794Z,25.92
2022-08-05T07:59:23.207Z,26.13
2022-08-05T08:04:38.405Z,26.33
2022-08-05T08:09:45.870Z,26.53
2022-08-05T08:14:53.047Z,26.66
2022-08-05T08:20:10.700Z,26.86
2022-08-05T08:26:00.145Z,27.16
2022-08-05T08:30:56.257Z,27.42
2022-08-05T08:36:29.842Z,27.64
2022-08-05T08:41:52.710Z,27.89
2022-08-05T08:47:01.608Z,28.10
2022-08-05T08:52:14.811Z,28.35
2022-08-05T08:57:22.610Z,28.56
2022-08-05T09:02:30.480Z,28.81
2022-08-05T09:07:39.703Z,29.04
2022-08-05T09:13:05.239Z,29.21
2022-08-05T09:18:13.440Z,29.35
2022-08-05T09:23:22.124Z,29.50
2022-08-05T09:28:31.841Z,29.74
2022-08-05T09:33:52.285Z,29.98
2022-08-05T09:39:02.434Z,30.22
2022-08-05T09:44:09.539Z,30.47
2022-08-05T09:49:54.668Z,30.72
2022-08-05T09:55:55.418Z,30.96
2022-08-05T10:00:31.502Z,31.18
2022-08-05T10:05:38.837Z,31.42
2022-08-05T10:10:54.288Z,31.64
2022-08-05T10:16:02.090Z,31.81
2022-08-05T10:21:15.636Z,31.94
2022-08-05T10:26:31.761Z,32.07
2022-08-05T10:32:55.448Z,32.34
2022-08-05T10:37:07.935Z,32.71
2022-08-05T10:42:32.419Z,32.76
2022-08-05T10:47:56.147Z,32.94
2022-08-05T10:53:39.239Z,33.13
2022-08-05T10:59:12.692Z,33.38
2022-08-05T11:04:43.643Z,33.58
2022-08-05T11:10:09.740Z,33.81
2022-08-05T11:15:23.585Z,34.25
2022-08-05T11:20:52.213Z,34.75
2022-08-05T11:26:10.606Z,34.94
2022-08-05T11:31:54.409Z,35.35
2022-08-05T11:37:02.804Z,35.63
2022-08-05T11:42:30.927Z,35.77
2022-08-05T11:47:49.558Z,35.91
2022-08-05T11:52:58.426Z,36.25
2022-08-05T11:58:10.649Z,36.63
2022-08-05T12:03:28.494Z,37.40
2022-08-05T12:08:50.861Z,40.64
2022-08-05T12:14:04.133Z,43.73
2022-08-05T12:20:26.185Z,45.52
2022-08-05T12:24:49.358Z,46.41
2022-08-05T12:30:05.069Z,47.55
2022-08-05T12:35:16.932Z,49.20
2022-08-05T12:40:32.189Z,50.08
2022-08-05T12:45:48.321Z,50.35
2022-08-05T12:52:10.156Z,51.76
2022-08-05T12:56:51.043Z,52.68
2022-08-05T13:02:07.206Z,52.88
2022-08-05T13:07:17.233Z,51.69
2022-08-05T13:12:23.994Z,50.83
2022-08-05T13:17:41.838Z,51.82
2022-08-05T13:22:52.782Z,51.32
2022-08-05T13:28:00.056Z,51.33
2022-08-05T13:33:07.485Z,52.20
2022-08-05T13:38:20.377Z,53.00
2022-08-05T13:43:44.021Z,52.58
2022-08-05T13:48:58.018Z,52.36
2022-08-05T13:54:11.881Z,52.10
2022-08-05T13:59:21.160Z,52.25
2022-08-05T14:04:51.346Z,53.04
2022-08-05T14:09:58.850Z,52.15
2022-08-05T14:16:04.519Z,51.83
2022-08-05T14:20:34.333Z,52.52
2022-08-05T14:25:44.892Z,53.50
2022-08-05T14:30:52.289Z,54.08
2022-08-05T14:36:02.115Z,53.60
2022-08-05T14:41:09.392Z,51.89
2022-08-05T14:46:17.018Z,51.50
2022-08-05T14:51:24.040Z,51.60
2022-08-05T14:56:31.648Z,51.51
2022-08-05T15:01:48.373Z,51.83
2022-08-05T15:06:56.231Z,51.70
2022-08-05T15:12:03.944Z,52.18
2022-08-05T15:17:44.534Z,52.68
2022-08-05T15:22:38.824Z,52.47
2022-08-05T15:27:52.471Z,51.05
2022-08-05T15:33:01.835Z,50.47
2022-08-05T15:38:34.146Z,50.56
2022-08-05T15:43:45.807Z,50.63
2022-08-05T15:49:01.389Z,50.42
2022-08-05T15:54:17.906Z,50.48
2022-08-05T15:59:25.471Z,50.32
2022-08-05T16:04:36.508Z,49.97
2022-08-05T16:09:43.767Z,49.98
2022-08-05T16:14:50.836Z,49.41
2022-08-05T16:20:04.842Z,48.94
2022-08-05T16:25:14.710Z,48.79
2022-08-05T16:30:25.514Z,48.56
2022-08-05T16:35:41.841Z,48.34
2022-08-05T16:40:55.133Z,48.03
2022-08-05T16:46:23.637Z,47.43
2022-08-05T16:51:42.758Z,47.05
2022-08-05T16:56:58.090Z,46.44
2022-08-05T17:02:05.070Z,46.05
2022-08-05T17:07:12.736Z,45.62
2022-08-05T17:12:22.614Z,44.82
2022-08-05T17:17:51.257Z,43.52
2022-08-05T17:23:02.188Z,42.45
2022-08-05T17:28:10.061Z,41.60
2022-08-05T17:33:17.054Z,40.58
2022-08-05T17:38:23.957Z,39.59
2022-08-05T17:43:50.637Z,38.60
2022-08-05T17:48:58.149Z,37.51
2022-08-05T17:54:05.208Z,36.46
2022-08-05T17:59:10.525Z,35.59
2022-08-05T18:04:21.155Z,34.86
2022-08-05T18:09:58.907Z,34.02
2022-08-05T18:15:01.181Z,33.27
2022-08-05T18:20:14.945Z,32.63
2022-08-05T18:25:22.195Z,32.14
2022-08-05T18:30:33.210Z,31.72
2022-08-05T18:36:00.122Z,31.28
2022-08-05T18:41:56.093Z,30.36
2022-08-05T18:46:36.632Z,30.06
2022-08-05T18:52:05.668Z,29.90
2022-08-05T18:57:18.097Z,29.61
2022-08-05T19:02:31.110Z,29.33
2022-08-05T19:07:42.347Z,29.08
2022-08-05T19:12:53.574Z,28.88
2022-08-05T19:18:09.575Z,28.67
2022-08-05T19:24:03.795Z,28.42
2022-08-05T19:28:45.247Z,28.20
2022-08-05T19:33:56.569Z,28.02
2022-08-05T19:39:04.057Z,27.84
2022-08-05T19:44:13.197Z,27.63
2022-08-05T19:49:22.507Z,27.44
2022-08-05T19:54:31.915Z,27.27
2022-08-05T19:59:54.549Z,27.10
2022-08-05T20:05:43.207Z,26.93
2022-08-05T20:11:06.043Z,26.74
2022-08-05T20:16:14.130Z,26.57
2022-08-05T20:21:27.922Z,26.43
2022-08-05T20:26:37.816Z,26.27
2022-08-05T20:31:53.566Z,26.14
2022-08-05T20:37:04.822Z,26.01
2022-08-05T20:42:25.342Z,25.89
2022-08-05T20:47:40.089Z,25.78
2022-08-05T20:52:48.051Z,25.68
2022-08-05T20:57:55.363Z,25.57
2022-08-05T21:03:06.882Z,25.49
2022-08-05T21:08:14.731Z,25.42
2022-08-05T21:13:37.838Z,25.34
2022-08-05T21:18:48.480Z,25.26
2022-08-05T21:23:55.796Z,25.16
2022-08-05T21:29:03.710Z,25.10
2022-08-05T21:34:11.396Z,25.04
2022-08-05T21:39:26.934Z,24.98
2022-08-05T21:44:35.165Z,24.91
2022-08-05T21:49:48.291Z,24.81
2022-08-05T21:55:09.449Z,24.70
2022-08-05T22:00:18.623Z,24.70
2022-08-05T22:05:27.267Z,24.69
2022-08-05T22:10:34.494Z,24.65
2022-08-05T22:16:00.750Z,24.52
2022-08-05T22:21:18.697Z,24.09
2022-08-05T22:26:49.654Z,23.60
2022-08-05T22:32:02.886Z,23.28
2022-08-05T22:37:10.369Z,23.11
2022-08-05T22:42:25.406Z,23.03
2022-08-05T22:47:33.403Z,22.96
2022-08-05T22:52:43.933Z,22.88
2022-08-05T22:57:51.273Z,22.82
2022-08-05T23:02:58.344Z,22.75
2022-08-05T23:08:05.785Z,22.67
2022-08-05T23:13:12.787Z,22.57
2022-08-05T23:18:19.737Z,22.46
2022-08-05T23:23:30.061Z,22.38
2022-08-05T23:28:43.211Z,22.32
2022-08-05T23:34:04.982Z,22.27
2022-08-05T23:39:17.516Z,22.18
2022-08-05T23:44:39.265Z,22.08
2022-08-05T23:49:52.044Z,21.97
2022-08-05T23:55:07.131Z,21.91
